createdAt,value
2023-05-04T00:01:37.887Z,12.02
2023-05-04T00:03:42.696Z,11.93
2023-05-04T00:05:47.912Z,11.91
2023-05-04T00:07:52.789Z,11.92
2023-05-04T00:10:00.394Z,11.95
2023-05-04T00:12:05.325Z,11.98
2023-05-04T00:14:10.240Z,12.02
2023-05-04T00:16:15.217Z,12.02
2023-05-04T00:18:20.218Z,12.01
2023-05-04T00:20:25.298Z,11.97
2023-05-04T00:22:30.182Z,11.94
2023-05-04T00:24:35.161Z,11.90
2023-05-04T00:26:42.703Z,11.88
2023-05-04T00:28:47.798Z,11.84
2023-05-04T00:30:52.663Z,11.83
2023-05-04T00:32:57.595Z,11.83
2023-05-04T00:35:03.251Z,11.79
2023-05-04T00:37:08.179Z,11.73
2023-05-04T00:39:13.112Z,11.70
2023-05-04T00:41:18.120Z,11.68
2023-05-04T00:43:25.557Z,11.63
2023-05-04T00:45:30.871Z,11.56
2023-05-04T00:47:35.978Z,11.48
2023-05-04T00:49:41.280Z,11.42
2023-05-04T00:51:47.687Z,11.42
2023-05-04T00:53:54.729Z,11.46
2023-05-04T00:56:01.030Z,11.46
2023-05-04T00:58:06.110Z,11.48
2023-05-04T01:00:15.736Z,11.46
2023-05-04T01:02:20.805Z,11.44
2023-05-04T01:04:25.756Z,11.41
2023-05-04T01:06:38.949Z,11.40
2023-05-04T01:08:49.304Z,11.38
2023-05-04T01:10:59.749Z,11.36
2023-05-04T01:13:09.882Z,11.34
2023-05-04T01:15:17.829Z,11.31
2023-05-04T01:17:23.243Z,11.24
2023-05-04T01:19:29.401Z,11.19
2023-05-04T01:21:37.165Z,11.20
2023-05-04T01:23:42.151Z,11.19
2023-05-04T01:25:52.714Z,11.18
2023-05-04T01:28:02.567Z,11.13
2023-05-04T01:30:12.689Z,11.06
2023-05-04T01:32:18.533Z,11.01
2023-05-04T01:34:25.296Z,10.97
2023-05-04T01:36:30.364Z,10.92
2023-05-04T01:38:40.695Z,10.93
2023-05-04T01:40:45.680Z,10.90
2023-05-04T01:42:50.886Z,10.92
2023-05-04T01:44:56.551Z,10.92
2023-05-04T01:47:01.426Z,10.90
2023-05-04T01:49:07.310Z,10.88
2023-05-04T01:51:12.152Z,10.88
2023-05-04T01:53:17.146Z,10.83
2023-05-04T01:55:24.628Z,10.81
2023-05-04T01:57:29.625Z,10.81
2023-05-04T01:59:34.755Z,10.81
2023-05-04T02:01:39.664Z,10.81
2023-05-04T02:03:45.017Z,10.82
2023-05-04T02:05:49.804Z,10.79
2023-05-04T02:07:54.690Z,10.78
2023-05-04T02:09:59.538Z,10.68
2023-05-04T02:12:07.184Z,10.65
2023-05-04T02:14:12.190Z,10.62
2023-05-04T02:16:17.187Z,10.60
2023-05-04T02:18:22.532Z,10.52
2023-05-04T02:20:27.427Z,10.44
2023-05-04T02:22:32.683Z,10.39
2023-05-04T02:24:37.330Z,10.30
2023-05-04T02:26:42.337Z,10.28
2023-05-04T02:28:50.192Z,10.26
2023-05-04T02:30:55.154Z,10.25
2023-05-04T02:33:00.031Z,10.24
2023-05-04T02:35:05.117Z,10.24
2023-05-04T02:37:09.962Z,10.27
2023-05-04T02:39:14.968Z,10.30
2023-05-04T02:41:19.866Z,10.31
2023-05-04T02:43:24.872Z,10.30
2023-05-04T02:45:33.399Z,10.35
2023-05-04T02:47:38.435Z,10.39
2023-05-04T02:49:43.768Z,10.40
2023-05-04T02:51:48.729Z,10.37
2023-05-04T02:53:53.653Z,10.36
2023-05-04T02:55:58.611Z,10.36
2023-05-04T02:58:03.571Z,10.37
2023-05-04T03:00:10.139Z,10.39
2023-05-04T03:02:17.698Z,10.37
2023-05-04T03:04:22.731Z,10.33
2023-05-04T03:06:27.729Z,10.31
2023-05-04T03:08:32.620Z,10.29
2023-05-04T03:10:37.684Z,10.29
2023-05-04T03:12:42.672Z,10.21
2023-05-04T03:14:47.593Z,10.16
2023-05-04T03:16:52.714Z,10.16
2023-05-04T03:19:01.092Z,10.17
2023-05-04T03:21:06.407Z,10.16
2023-05-04T03:23:11.938Z,10.15
2023-05-04T03:25:16.979Z,10.17
2023-05-04T03:27:22.193Z,10.16
2023-05-04T03:29:27.298Z,10.16
2023-05-04T03:31:33.731Z,10.15
2023-05-04T03:33:38.691Z,10.11
2023-05-04T03:35:46.297Z,10.08
2023-05-04T03:37:51.250Z,10.03
2023-05-04T03:39:56.320Z,9.99
2023-05-04T03:42:01.142Z,9.94
2023-05-04T03:44:06.125Z,9.93
2023-05-04T03:46:12.269Z,9.92
2023-05-04T03:48:17.246Z,9.87
2023-05-04T03:50:22.408Z,9.87
2023-05-04T03:52:29.875Z,9.86
2023-05-04T03:54:35.108Z,9.88
2023-05-04T03:56:39.997Z,9.94
2023-05-04T03:58:44.960Z,9.94
2023-05-04T04:00:52.263Z,9.94
2023-05-04T04:02:57.346Z,9.96
2023-05-04T04:05:02.368Z,9.98
2023-05-04T04:07:07.284Z,9.95
2023-05-04T04:09:14.812Z,9.98
2023-05-04T04:11:20.033Z,9.94
2023-05-04T04:13:24.713Z,9.91
2023-05-04T04:15:29.720Z,9.86
2023-05-04T04:17:34.684Z,9.83
2023-05-04T04:19:39.705Z,9.85
2023-05-04T04:21:44.670Z,9.90
2023-05-04T04:23:49.579Z,9.91
2023-05-04T04:25:57.179Z,9.91
2023-05-04T04:28:02.146Z,9.91
2023-05-04T04:30:07.656Z,9.92
2023-05-04T04:32:12.802Z,9.96
2023-05-04T04:34:18.138Z,10.01
2023-05-04T04:36:23.078Z,10.05
2023-05-04T04:38:28.118Z,10.06
2023-05-04T04:40:33.031Z,10.05
2023-05-04T04:42:40.593Z,10.04
2023-05-04T04:44:45.847Z,9.96
2023-05-04T04:46:51.227Z,9.93
2023-05-04T04:48:56.360Z,9.95
2023-05-04T04:51:01.252Z,9.96
2023-05-04T04:53:06.126Z,9.91
2023-05-04T04:55:12.099Z,9.95
2023-05-04T04:57:17.020Z,10.04
2023-05-04T04:59:24.987Z,10.15
2023-05-04T05:01:30.146Z,10.18
2023-05-04T05:03:34.970Z,10.19
2023-05-04T05:05:39.996Z,10.23
2023-05-04T05:07:44.924Z,10.24
2023-05-04T05:09:49.860Z,10.24
2023-05-04T05:11:54.850Z,10.27
2023-05-04T05:14:00.070Z,10.28
2023-05-04T05:16:07.679Z,10.32
2023-05-04T05:18:12.788Z,10.37
2023-05-04T05:20:17.749Z,10.43
2023-05-04T05:22:23.051Z,10.53
2023-05-04T05:24:28.075Z,10.58
2023-05-04T05:26:33.714Z,10.65
2023-05-04T05:28:38.719Z,10.67
2023-05-04T05:30:44.242Z,10.71
2023-05-04T05:32:52.190Z,10.75
2023-05-04T05:34:57.108Z,10.78
2023-05-04T05:37:02.043Z,10.81
2023-05-04T05:39:07.733Z,10.86
2023-05-04T05:41:12.794Z,10.89
2023-05-04T05:43:17.773Z,10.83
2023-05-04T05:45:22.884Z,10.80
2023-05-04T05:47:27.685Z,10.78
2023-05-04T05:49:35.500Z,10.81
2023-05-04T05:51:40.445Z,10.90
2023-05-04T05:53:45.793Z,10.93
2023-05-04T05:55:50.812Z,10.98
2023-05-04T05:57:55.754Z,11.05
2023-05-04T06:00:00.927Z,11.10
2023-05-04T06:02:06.198Z,11.09
2023-05-04T06:04:11.845Z,11.20
2023-05-04T06:06:19.647Z,11.33
2023-05-04T06:08:24.636Z,11.40
2023-05-04T06:10:29.973Z,11.53
2023-05-04T06:12:35.260Z,11.61
2023-05-04T06:14:40.145Z,11.65
2023-05-04T06:16:45.097Z,11.64
2023-05-04T06:18:50.079Z,11.68
2023-05-04T06:21:01.159Z,11.79
2023-05-04T06:23:11.641Z,11.88
2023-05-04T06:25:16.853Z,11.96
2023-05-04T06:27:23.598Z,12.01
2023-05-04T06:29:29.154Z,12.08
2023-05-04T06:31:34.177Z,12.14
2023-05-04T06:33:39.232Z,12.17
2023-05-04T06:35:45.406Z,12.24
2023-05-04T06:39:58.911Z,12.41
2023-05-04T06:42:03.882Z,12.49
2023-05-04T06:44:14.321Z,12.64
2023-05-04T06:46:19.370Z,12.81
2023-05-04T06:48:24.261Z,12.93
2023-05-04T06:50:29.690Z,12.99
2023-05-04T06:52:34.339Z,13.00
2023-05-04T06:54:40.401Z,13.06
2023-05-04T06:56:48.017Z,13.05
2023-05-04T06:58:53.148Z,13.16
2023-05-04T07:00:58.067Z,13.24
2023-05-04T07:03:03.113Z,13.33
2023-05-04T07:05:08.676Z,13.48
2023-05-04T07:07:13.593Z,13.60
2023-05-04T07:09:18.656Z,13.68
2023-05-04T07:11:23.710Z,13.72
2023-05-04T07:13:31.210Z,13.85
2023-05-04T07:15:37.041Z,13.93
2023-05-04T07:17:42.365Z,14.02
2023-05-04T07:19:50.080Z,14.12
2023-05-04T07:21:55.125Z,14.24
2023-05-04T07:24:00.058Z,14.32
2023-05-04T07:26:04.957Z,14.38
2023-05-04T07:28:09.868Z,14.53
2023-05-04T07:30:18.049Z,14.56
2023-05-04T07:32:23.085Z,14.59
2023-05-04T07:34:41.815Z,14.69
2023-05-04T07:36:49.677Z,14.86
2023-05-04T07:38:54.577Z,15.05
2023-05-04T07:40:59.864Z,15.16
2023-05-04T07:43:04.495Z,15.16
2023-05-04T07:45:11.244Z,15.32
2023-05-04T07:47:18.694Z,15.47
2023-05-04T07:49:23.662Z,15.56
2023-05-04T07:51:28.617Z,15.67
2023-05-04T07:53:33.528Z,15.75
2023-05-04T07:55:38.425Z,15.87
2023-05-04T07:57:43.358Z,15.90
2023-05-04T07:59:48.232Z,16.03
2023-05-04T08:01:53.468Z,16.16
2023-05-04T08:04:01.240Z,16.26
2023-05-04T08:06:06.380Z,16.35
2023-05-04T08:08:11.190Z,16.38
2023-05-04T08:10:16.242Z,16.43
2023-05-04T08:12:21.117Z,16.37
2023-05-04T08:14:26.082Z,16.49
2023-05-04T08:16:31.334Z,16.59
2023-05-04T08:18:37.314Z,16.65
2023-05-04T08:20:44.777Z,16.79
2023-05-04T08:22:50.153Z,16.80
2023-05-04T08:24:55.147Z,16.94
2023-05-04T08:27:07.126Z,17.02
2023-05-04T08:29:13.577Z,17.10
2023-05-04T08:31:18.836Z,17.09
2023-05-04T08:33:23.889Z,17.08
2023-05-04T08:35:29.069Z,17.00
2023-05-04T08:37:36.342Z,16.91
2023-05-04T08:39:42.155Z,16.95
2023-05-04T08:41:47.529Z,17.09
2023-05-04T08:43:52.883Z,17.20
2023-05-04T08:45:58.380Z,17.25
2023-05-04T08:48:04.243Z,17.31
2023-05-04T08:50:11.116Z,17.42
2023-05-04T08:52:16.987Z,17.55
2023-05-04T08:54:25.783Z,17.57
2023-05-04T08:56:30.909Z,17.62
2023-05-04T08:58:38.120Z,17.50
2023-05-04T09:00:45.877Z,17.61
2023-05-04T09:02:52.707Z,17.72
2023-05-04T09:04:57.700Z,17.71
2023-05-04T09:07:02.787Z,17.79
2023-05-04T09:09:07.554Z,17.84
2023-05-04T09:11:15.160Z,17.96
2023-05-04T09:13:20.172Z,18.10
2023-05-04T09:15:25.751Z,18.19
2023-05-04T09:17:30.923Z,18.14
2023-05-04T09:19:39.174Z,18.06
2023-05-04T09:21:44.156Z,18.10
2023-05-04T09:23:50.164Z,18.10
2023-05-04T09:25:56.625Z,18.20
2023-05-04T09:28:04.222Z,18.21
2023-05-04T09:30:11.549Z,18.21
2023-05-04T09:32:17.159Z,18.31
2023-05-04T09:34:22.508Z,18.44
2023-05-04T09:36:27.439Z,18.50
2023-05-04T09:38:34.960Z,18.54
2023-05-04T09:40:41.661Z,18.59
2023-05-04T09:42:46.676Z,18.52
2023-05-04T09:45:04.975Z,18.54
2023-05-04T09:47:10.894Z,18.52
2023-05-04T09:49:15.837Z,18.49
2023-05-04T09:51:21.814Z,18.54
2023-05-04T09:53:29.196Z,18.58
2023-05-04T09:55:34.360Z,18.70
2023-05-04T09:57:39.582Z,18.71
2023-05-04T09:59:45.801Z,18.74
2023-05-04T10:01:53.544Z,18.78
2023-05-04T10:03:59.106Z,18.75
2023-05-04T10:06:09.297Z,18.81
2023-05-04T10:08:15.559Z,18.92
2023-05-04T10:10:20.521Z,19.02
2023-05-04T10:12:25.207Z,19.04
2023-05-04T10:14:33.586Z,19.08
2023-05-04T10:16:47.625Z,19.18
2023-05-04T10:19:09.075Z,19.25
2023-05-04T10:21:31.054Z,19.25
2023-05-04T10:24:10.363Z,19.29
2023-05-04T10:26:36.271Z,19.38
2023-05-04T10:28:59.919Z,19.44
2023-05-04T10:31:06.505Z,19.40
2023-05-04T10:33:11.676Z,19.52
2023-05-04T10:35:20.335Z,19.59
2023-05-04T10:37:25.285Z,19.61
2023-05-04T10:39:30.820Z,19.62
2023-05-04T10:41:35.724Z,19.64
2023-05-04T10:43:40.758Z,19.75
2023-05-04T10:45:45.913Z,19.79
2023-05-04T10:48:00.471Z,19.79
2023-05-04T10:50:07.165Z,19.90
2023-05-04T10:52:16.411Z,19.93
2023-05-04T10:54:21.944Z,19.96
2023-05-04T10:56:28.372Z,19.96
2023-05-04T10:58:33.286Z,19.92
2023-05-04T11:00:42.574Z,20.02
2023-05-04T11:02:48.427Z,19.97
2023-05-04T11:05:04.518Z,19.95
2023-05-04T11:07:10.080Z,20.04
2023-05-04T11:09:17.845Z,20.17
2023-05-04T11:11:22.852Z,20.35
2023-05-04T11:13:27.612Z,20.38
2023-05-04T11:15:33.123Z,20.48
2023-05-04T11:17:47.546Z,20.62
2023-05-04T11:19:53.490Z,20.79
2023-05-04T11:21:58.632Z,20.98
2023-05-04T11:24:03.773Z,21.03
2023-05-04T11:26:12.603Z,21.11
2023-05-04T11:28:17.604Z,21.16
2023-05-04T11:30:22.369Z,21.15
2023-05-04T11:32:36.992Z,21.28
2023-05-04T11:34:42.106Z,21.29
2023-05-04T11:36:48.420Z,21.23
2023-05-04T11:38:54.608Z,21.24
2023-05-04T11:40:59.646Z,21.38
2023-05-04T11:43:07.431Z,21.43
2023-05-04T11:45:15.234Z,21.45
2023-05-04T11:47:20.803Z,21.39
2023-05-04T11:49:27.010Z,21.36
2023-05-04T11:51:31.988Z,21.36
2023-05-04T11:53:40.407Z,21.50
2023-05-04T11:55:45.498Z,21.55
2023-05-04T11:57:59.094Z,21.56
2023-05-04T12:00:07.857Z,21.57
2023-05-04T12:02:18.220Z,21.66
2023-05-04T12:04:23.202Z,21.63
2023-05-04T12:06:34.947Z,21.41
2023-05-04T12:08:42.529Z,21.39
2023-05-04T12:10:47.569Z,21.44
2023-05-04T12:12:52.363Z,21.40
2023-05-04T12:14:59.392Z,21.42
2023-05-04T12:17:06.923Z,21.51
2023-05-04T12:19:13.955Z,21.57
2023-05-04T12:21:21.689Z,21.58
2023-05-04T12:23:26.556Z,21.61
2023-05-04T12:25:31.531Z,21.66
2023-05-04T12:27:36.442Z,21.67
2023-05-04T12:29:41.746Z,21.67
2023-05-04T12:31:47.086Z,21.68
2023-05-04T12:33:55.346Z,21.70
2023-05-04T12:36:00.276Z,21.68
2023-05-04T12:38:05.133Z,21.56
2023-05-04T12:40:27.308Z,21.50
2023-05-04T12:42:33.457Z,21.50
2023-05-04T12:44:38.375Z,21.45
2023-05-04T12:46:43.334Z,21.41
2023-05-04T12:48:48.285Z,21.41
2023-05-04T12:50:56.328Z,21.38
2023-05-04T12:53:04.277Z,21.32
2023-05-04T12:55:10.673Z,21.37
2023-05-04T12:57:15.836Z,21.41
2023-05-04T12:59:21.967Z,21.42
2023-05-04T13:01:27.675Z,21.41
2023-05-04T13:03:32.846Z,21.46
2023-05-04T13:05:37.555Z,21.43
2023-05-04T13:07:45.315Z,21.55
2023-05-04T13:09:50.344Z,21.57
2023-05-04T13:11:55.125Z,21.63
2023-05-04T13:14:00.069Z,21.76
2023-05-04T13:16:06.072Z,21.76
2023-05-04T13:18:10.999Z,21.88
2023-05-04T13:20:16.556Z,21.87
2023-05-04T13:22:21.559Z,21.92
2023-05-04T13:24:29.850Z,21.99
2023-05-04T13:26:34.837Z,22.09
2023-05-04T13:28:39.555Z,22.21
2023-05-04T13:30:48.717Z,22.37
2023-05-04T13:32:56.494Z,22.45
2023-05-04T13:35:01.544Z,22.62
2023-05-04T13:37:06.848Z,22.73
2023-05-04T13:39:12.055Z,22.71
2023-05-04T13:41:19.671Z,22.77
2023-05-04T13:43:24.828Z,22.79
2023-05-04T13:45:31.403Z,22.86
2023-05-04T13:47:37.740Z,23.04
2023-05-04T13:49:42.906Z,23.12
2023-05-04T13:51:47.869Z,23.30
2023-05-04T13:53:52.776Z,23.43
2023-05-04T13:55:57.654Z,23.54
2023-05-04T13:58:04.951Z,23.67
2023-05-04T14:00:11.550Z,23.84
2023-05-04T14:02:16.706Z,23.94
2023-05-04T14:04:21.804Z,23.99
2023-05-04T14:06:26.682Z,23.99
2023-05-04T14:08:32.048Z,24.00
2023-05-04T14:10:37.633Z,24.10
2023-05-04T14:12:42.610Z,24.27
2023-05-04T14:14:50.939Z,24.30
2023-05-04T14:16:55.942Z,24.47
2023-05-04T14:19:00.718Z,24.52
2023-05-04T14:21:05.858Z,24.60
2023-05-04T14:23:10.856Z,24.67
2023-05-04T14:25:15.946Z,24.63
2023-05-04T14:27:21.292Z,24.87
2023-05-04T14:29:26.824Z,25.05
2023-05-04T14:31:34.550Z,25.08
2023-05-04T14:33:39.752Z,25.16
2023-05-04T14:35:47.950Z,25.05
2023-05-04T14:37:53.481Z,24.95
2023-05-04T14:39:59.685Z,24.93
2023-05-04T14:42:04.561Z,24.82
2023-05-04T14:44:09.499Z,24.82
2023-05-04T14:46:15.002Z,24.89
2023-05-04T14:48:24.473Z,24.87
2023-05-04T14:50:29.517Z,24.92
2023-05-04T14:52:34.255Z,24.92
2023-05-04T14:54:39.241Z,25.05
2023-05-04T14:56:44.450Z,25.08
2023-05-04T14:58:49.470Z,25.19
2023-05-04T15:00:54.604Z,25.27
2023-05-04T15:02:59.686Z,25.29
2023-05-04T15:05:10.230Z,25.32
2023-05-04T15:07:16.230Z,25.39
2023-05-04T15:09:21.287Z,25.29
2023-05-04T15:11:25.997Z,25.07
2023-05-04T15:13:32.180Z,25.01
2023-05-04T15:15:41.518Z,25.01
2023-05-04T15:17:46.456Z,24.92
2023-05-04T15:19:51.111Z,24.82
2023-05-04T15:21:58.720Z,24.99
2023-05-04T15:24:03.779Z,25.17
2023-05-04T15:26:08.665Z,25.18
2023-05-04T15:28:13.503Z,25.28
2023-05-04T15:30:19.071Z,25.41
2023-05-04T15:32:23.985Z,25.54
2023-05-04T15:34:29.008Z,25.80
2023-05-04T15:36:33.694Z,25.71
2023-05-04T15:38:41.248Z,25.79
2023-05-04T15:40:46.193Z,25.84
2023-05-04T15:42:51.356Z,25.91
2023-05-04T15:44:56.403Z,25.73
2023-05-04T15:47:01.575Z,25.83
2023-05-04T15:49:06.567Z,25.99
2023-05-04T15:51:13.968Z,26.00
2023-05-04T15:53:19.025Z,25.99
2023-05-04T15:55:27.047Z,26.01
2023-05-04T15:57:32.017Z,26.03
2023-05-04T15:59:36.975Z,26.01
2023-05-04T16:01:42.183Z,25.99
2023-05-04T16:03:47.365Z,26.13
2023-05-04T16:05:52.549Z,26.23
2023-05-04T16:07:57.937Z,26.29
2023-05-04T16:10:02.805Z,26.29
2023-05-04T16:12:10.907Z,26.20
2023-05-04T16:14:16.377Z,26.00
2023-05-04T16:16:21.612Z,25.61
2023-05-04T16:18:26.547Z,25.31
2023-05-04T16:20:31.542Z,24.80
2023-05-04T16:22:37.067Z,24.54
2023-05-04T16:24:42.038Z,24.33
2023-05-04T16:26:49.920Z,24.10
2023-05-04T16:28:57.694Z,24.02
2023-05-04T16:31:02.590Z,23.91
2023-05-04T16:33:07.360Z,23.71
2023-05-04T16:35:12.839Z,23.53
2023-05-04T16:37:19.024Z,23.49
2023-05-04T16:39:23.910Z,23.40
2023-05-04T16:41:30.846Z,23.32
2023-05-04T16:43:35.769Z,23.28
2023-05-04T16:45:43.155Z,23.09
2023-05-04T16:47:48.587Z,23.04
2023-05-04T16:49:53.552Z,23.07
2023-05-04T16:51:58.459Z,23.05
2023-05-04T16:54:03.370Z,22.96
2023-05-04T16:56:09.096Z,22.81
2023-05-04T16:58:14.068Z,22.80
2023-05-04T17:00:19.138Z,22.66
2023-05-04T17:02:26.886Z,22.59
2023-05-04T17:04:31.852Z,22.52
2023-05-04T17:06:36.582Z,22.42
2023-05-04T17:08:41.582Z,22.35
2023-05-04T17:10:46.248Z,22.26
2023-05-04T17:12:52.223Z,22.22
2023-05-04T17:14:57.176Z,22.12
2023-05-04T17:17:02.037Z,22.05
2023-05-04T17:19:11.077Z,22.03
2023-05-04T17:21:16.263Z,22.02
2023-05-04T17:23:21.057Z,21.93
2023-05-04T17:25:26.030Z,21.88
2023-05-04T17:27:30.755Z,21.77
2023-05-04T17:29:35.699Z,21.69
2023-05-04T17:31:40.562Z,21.62
2023-05-04T17:33:46.433Z,21.59
2023-05-04T17:35:54.327Z,21.58
2023-05-04T17:37:59.352Z,21.53
2023-05-04T17:40:04.397Z,21.47
2023-05-04T17:42:10.909Z,21.42
2023-05-04T17:44:16.032Z,21.43
2023-05-04T17:46:20.674Z,21.32
2023-05-04T17:48:27.028Z,21.27
2023-05-04T17:50:31.981Z,21.23
2023-05-04T17:52:39.508Z,21.21
2023-05-04T17:54:44.401Z,21.18
2023-05-04T17:56:49.344Z,21.17
2023-05-04T17:58:54.296Z,21.13
2023-05-04T18:00:59.331Z,21.07
2023-05-04T18:03:04.256Z,20.98
2023-05-04T18:05:10.774Z,20.94
2023-05-04T18:07:15.639Z,20.92
2023-05-04T18:09:23.286Z,20.88
2023-05-04T18:11:28.208Z,20.82
2023-05-04T18:13:33.150Z,20.76
2023-05-04T18:15:38.124Z,20.72
2023-05-04T18:17:43.088Z,20.67
2023-05-04T18:19:47.976Z,20.63
2023-05-04T18:21:52.940Z,20.57
2023-05-04T18:23:57.837Z,20.51
2023-05-04T18:26:05.414Z,20.47
2023-05-04T18:28:10.389Z,20.43
2023-05-04T18:30:15.534Z,20.35
2023-05-04T18:32:20.163Z,20.26
2023-05-04T18:34:25.197Z,20.22
2023-05-04T18:36:30.191Z,20.19
2023-05-04T18:38:37.306Z,20.13
2023-05-04T18:40:42.202Z,20.10
2023-05-04T18:42:49.822Z,20.07
2023-05-04T18:44:55.032Z,20.02
2023-05-04T18:46:59.982Z,19.97
2023-05-04T18:49:04.868Z,19.93
2023-05-04T18:51:09.913Z,19.88
2023-05-04T18:53:14.903Z,19.85
2023-05-04T18:55:22.107Z,19.82
2023-05-04T18:57:29.431Z,19.77
2023-05-04T18:59:37.887Z,19.78
2023-05-04T19:01:44.373Z,19.73
2023-05-04T19:03:49.382Z,19.70
2023-05-04T19:05:54.452Z,19.63
2023-05-04T19:07:59.340Z,19.61
2023-05-04T19:10:04.323Z,19.55
2023-05-04T19:12:09.876Z,19.52
2023-05-04T19:14:15.090Z,19.51
2023-05-04T19:16:22.941Z,19.46
2023-05-04T19:18:27.849Z,19.41
2023-05-04T19:20:33.138Z,19.36
2023-05-04T19:22:38.187Z,19.32
2023-05-04T19:24:43.686Z,19.25
2023-05-04T19:26:48.524Z,19.18
2023-05-04T19:28:53.567Z,19.15
2023-05-04T19:30:58.696Z,19.05
2023-05-04T19:33:08.816Z,19.02
2023-05-04T19:35:14.592Z,18.99
2023-05-04T19:37:19.635Z,18.99
2023-05-04T19:39:24.485Z,18.89
2023-05-04T19:41:29.606Z,18.88
2023-05-04T19:43:34.584Z,18.87
2023-05-04T19:45:39.852Z,18.86
2023-05-04T19:47:45.799Z,18.83
2023-05-04T19:49:54.465Z,18.84
2023-05-04T19:51:59.390Z,18.78
2023-05-04T19:54:04.370Z,18.77
2023-05-04T19:56:09.626Z,18.76
2023-05-04T19:58:14.692Z,18.68
2023-05-04T20:00:20.098Z,18.65
2023-05-04T20:02:25.359Z,18.65
2023-05-04T20:04:30.094Z,18.57
2023-05-04T20:06:37.692Z,18.57
2023-05-04T20:08:44.257Z,18.50
2023-05-04T20:10:49.222Z,18.45
2023-05-04T20:12:54.204Z,18.41
2023-05-04T20:14:59.610Z,18.36
2023-05-04T20:17:04.600Z,18.32
2023-05-04T20:19:09.712Z,18.21
2023-05-04T20:21:14.692Z,18.17
2023-05-04T20:23:22.237Z,18.15
2023-05-04T20:25:27.750Z,18.14
2023-05-04T20:27:32.969Z,18.13
2023-05-04T20:29:38.055Z,18.08
2023-05-04T20:31:44.151Z,18.03
2023-05-04T20:33:49.235Z,17.98
2023-05-04T20:35:54.297Z,17.94
2023-05-04T20:37:59.448Z,17.87
2023-05-04T20:40:08.531Z,17.80
2023-05-04T20:42:13.762Z,17.76
2023-05-04T20:44:18.631Z,17.70
2023-05-04T20:46:23.639Z,17.65
2023-05-04T20:48:28.512Z,17.57
2023-05-04T20:50:33.488Z,17.48
2023-05-04T20:52:38.718Z,17.46
2023-05-04T20:54:44.440Z,17.44
2023-05-04T20:56:52.006Z,17.41
2023-05-04T20:58:56.909Z,17.39
2023-05-04T21:01:05.693Z,17.37
2023-05-04T21:03:10.784Z,17.34
2023-05-04T21:05:15.552Z,17.26
2023-05-04T21:07:20.705Z,17.25
2023-05-04T21:09:26.582Z,17.16
2023-05-04T21:11:31.621Z,17.16
2023-05-04T21:13:39.076Z,17.18
2023-05-04T21:15:44.484Z,17.19
2023-05-04T21:17:50.085Z,17.19
2023-05-04T21:19:55.278Z,17.18
2023-05-04T21:21:59.938Z,17.09
2023-05-04T21:24:04.850Z,17.04
2023-05-04T21:26:09.804Z,17.00
2023-05-04T21:28:14.694Z,16.96
2023-05-04T21:30:22.700Z,16.95
2023-05-04T21:32:27.711Z,16.92
2023-05-04T21:34:32.401Z,16.82
2023-05-04T21:36:38.926Z,16.74
2023-05-04T21:38:45.754Z,16.68
2023-05-04T21:40:50.846Z,16.64
2023-05-04T21:42:55.676Z,16.58
2023-05-04T21:45:00.948Z,16.51
2023-05-04T21:47:08.510Z,16.53
2023-05-04T21:49:13.537Z,16.50
2023-05-04T21:51:20.655Z,16.48
2023-05-04T21:53:26.015Z,16.46
2023-05-04T21:55:32.114Z,16.43
2023-05-04T21:57:37.577Z,16.39
2023-05-04T21:59:44.538Z,16.37
2023-05-04T22:01:49.439Z,16.34
2023-05-04T22:03:56.929Z,16.29
2023-05-04T22:06:02.067Z,16.26
2023-05-04T22:08:07.078Z,16.24
2023-05-04T22:10:12.696Z,16.22
2023-05-04T22:12:17.601Z,16.19
2023-05-04T22:14:22.725Z,16.18
2023-05-04T22:16:27.546Z,16.10
2023-05-04T22:18:32.769Z,16.06
2023-05-04T22:20:41.548Z,16.03
2023-05-04T22:22:46.473Z,15.98
2023-05-04T22:24:51.370Z,15.95
2023-05-04T22:26:56.782Z,15.91
2023-05-04T22:29:01.885Z,15.89
2023-05-04T22:31:06.895Z,15.87
2023-05-04T22:33:11.805Z,15.87
2023-05-04T22:35:17.136Z,15.86
2023-05-04T22:37:24.619Z,15.84
2023-05-04T22:39:29.626Z,15.78
2023-05-04T22:41:34.577Z,15.73
2023-05-04T22:43:40.807Z,15.69
2023-05-04T22:45:45.966Z,15.66
2023-05-04T22:47:51.416Z,15.62
2023-05-04T22:49:57.673Z,15.61
2023-05-04T22:52:02.597Z,15.59
2023-05-04T22:54:10.208Z,15.57
2023-05-04T22:56:15.056Z,15.58
2023-05-04T22:58:20.084Z,15.58
2023-05-04T23:00:25.735Z,15.55
2023-05-04T23:02:30.691Z,15.54
2023-05-04T23:04:35.719Z,15.53
2023-05-04T23:06:41.449Z,15.52
2023-05-04T23:08:46.402Z,15.55
2023-05-04T23:10:53.766Z,15.51
2023-05-04T23:12:58.724Z,15.48
2023-05-04T23:15:03.841Z,15.47
2023-05-04T23:17:09.566Z,15.46
2023-05-04T23:19:14.879Z,15.44
2023-05-04T23:21:19.787Z,15.44
2023-05-04T23:23:24.840Z,15.43
2023-05-04T23:25:29.703Z,15.41
2023-05-04T23:27:37.256Z,15.40
2023-05-04T23:29:42.539Z,15.35
2023-05-04T23:31:47.852Z,15.35
2023-05-04T23:33:52.916Z,15.32
2023-05-04T23:35:58.483Z,15.34
2023-05-04T23:38:04.149Z,15.32
2023-05-04T23:40:11.143Z,15.31
2023-05-04T23:42:16.141Z,15.25
2023-05-04T23:44:24.029Z,15.22
2023-05-04T23:46:29.085Z,15.21
2023-05-04T23:48:34.665Z,15.16
2023-05-04T23:50:39.708Z,15.11
2023-05-04T23:52:44.877Z,15.11
2023-05-04T23:54:49.573Z,15.05
2023-05-04T23:56:54.469Z,15.01
2023-05-04T23:58:59.324Z,14.99
